createdAt,value
2022-09-17T00:00:59.052Z,1.50
2022-09-17T00:03:26.864Z,1.50
2022-09-17T00:06:06.420Z,1.30
2022-09-17T00:08:34.688Z,2.00
2022-09-17T00:11:13.893Z,1.07
2022-09-17T00:13:42.200Z,1.47
2022-09-17T00:16:09.261Z,1.30
2022-09-17T00:18:40.504Z,1.20
2022-09-17T00:21:15.917Z,1.10
2022-09-17T00:23:42.685Z,1.20
2022-09-17T00:26:09.499Z,1.50
2022-09-17T00:28:36.245Z,1.23
2022-09-17T00:31:08.743Z,1.10
2022-09-17T00:33:35.745Z,1.60
2022-09-17T00:36:03.857Z,1.93
2022-09-17T00:38:30.725Z,2.17
2022-09-17T00:40:57.440Z,1.30
2022-09-17T00:43:43.437Z,1.30
2022-09-17T00:46:20.887Z,1.67
2022-09-17T00:48:47.725Z,1.23
2022-09-17T00:51:18.460Z,1.33
2022-09-17T00:53:45.502Z,1.20
2022-09-17T00:56:30.165Z,1.30
2022-09-17T00:58:57.802Z,1.33
2022-09-17T01:01:24.528Z,1.50
2022-09-17T01:03:51.269Z,1.57
2022-09-17T01:06:32.277Z,1.60
2022-09-17T01:09:04.728Z,1.40
2022-09-17T01:11:52.311Z,1.23
2022-09-17T01:14:18.947Z,1.03
2022-09-17T01:16:55.446Z,1.30
2022-09-17T01:19:46.681Z,1.73
2022-09-17T01:22:31.418Z,2.00
2022-09-17T01:25:29.382Z,2.40
2022-09-17T01:28:12.056Z,1.77
2022-09-17T01:30:55.697Z,1.40
2022-09-17T01:33:28.669Z,1.60
2022-09-17T01:36:14.056Z,1.90
2022-09-17T01:39:18.610Z,1.30
2022-09-17T01:41:51.064Z,1.60
2022-09-17T01:44:28.195Z,1.23
2022-09-17T01:47:07.666Z,1.60
2022-09-17T01:49:37.897Z,1.93
2022-09-17T01:52:07.934Z,1.43
2022-09-17T01:54:42.538Z,1.80
2022-09-17T01:57:18.291Z,1.33
2022-09-17T01:59:51.232Z,1.80
2022-09-17T02:02:27.895Z,1.50
2022-09-17T02:05:12.361Z,1.30
2022-09-17T02:07:45.921Z,1.30
2022-09-17T02:10:21.594Z,1.57
2022-09-17T02:12:59.614Z,1.40
2022-09-17T02:15:33.574Z,1.30
2022-09-17T02:18:19.690Z,1.27
2022-09-17T02:20:54.842Z,1.97
2022-09-17T02:23:29.662Z,1.60
2022-09-17T02:26:09.346Z,1.40
2022-09-17T02:28:47.254Z,1.57
2022-09-17T02:31:14.364Z,1.60
2022-09-17T02:33:43.478Z,1.60
2022-09-17T02:36:10.225Z,1.70
2022-09-17T02:38:39.339Z,1.33
2022-09-17T02:41:14.087Z,2.00
2022-09-17T02:43:56.283Z,1.77
2022-09-17T02:46:56.856Z,1.50
2022-09-17T02:49:36.578Z,1.77
2022-09-17T02:52:25.126Z,1.50
2022-09-17T02:55:12.468Z,1.20
2022-09-17T02:57:49.905Z,2.13
2022-09-17T03:00:19.217Z,1.80
2022-09-17T03:03:06.086Z,1.50
2022-09-17T03:05:34.193Z,1.73
2022-09-17T03:08:01.113Z,1.67
2022-09-17T03:10:33.432Z,2.30
2022-09-17T03:13:00.165Z,1.80
2022-09-17T03:15:26.907Z,2.70
2022-09-17T03:17:53.720Z,1.50
2022-09-17T03:20:20.594Z,1.33
2022-09-17T03:22:47.237Z,1.60
2022-09-17T03:25:13.964Z,1.30
2022-09-17T03:27:42.815Z,1.40
2022-09-17T03:30:10.071Z,1.43
2022-09-17T03:32:36.675Z,1.50
2022-09-17T03:35:03.320Z,1.30
2022-09-17T03:37:33.198Z,1.50
2022-09-17T03:40:00.203Z,1.57
2022-09-17T03:42:27.073Z,1.47
2022-09-17T03:44:53.717Z,1.50
2022-09-17T03:47:20.344Z,1.40
2022-09-17T03:49:46.892Z,1.30
2022-09-17T03:52:13.602Z,2.40
2022-09-17T03:54:40.295Z,1.50
2022-09-17T03:57:06.914Z,1.40
2022-09-17T03:59:33.551Z,1.63
2022-09-17T04:02:00.259Z,1.73
2022-09-17T04:04:27.041Z,1.27
2022-09-17T04:06:54.508Z,1.57
2022-09-17T04:09:21.106Z,1.60
2022-09-17T04:11:47.672Z,1.77
2022-09-17T04:14:14.362Z,1.50
2022-09-17T04:16:41.095Z,1.47
2022-09-17T04:19:07.870Z,1.67
2022-09-17T04:21:34.578Z,1.40
2022-09-17T04:24:01.341Z,1.77
2022-09-17T04:26:27.941Z,1.20
2022-09-17T04:28:54.586Z,1.67
2022-09-17T04:31:22.588Z,1.23
2022-09-17T04:33:49.265Z,2.00
2022-09-17T04:36:16.200Z,1.50
2022-09-17T04:38:42.848Z,1.43
2022-09-17T04:41:09.422Z,1.60
2022-09-17T04:43:36.060Z,1.57
2022-09-17T04:46:02.734Z,1.63
2022-09-17T04:48:29.366Z,1.33
2022-09-17T04:50:55.950Z,1.67
2022-09-17T04:53:22.752Z,1.20
2022-09-17T04:55:49.403Z,1.43
2022-09-17T04:58:16.263Z,2.07
2022-09-17T05:00:43.099Z,1.70
2022-09-17T05:03:10.018Z,1.73
2022-09-17T05:05:36.713Z,1.60
2022-09-17T05:08:03.531Z,1.53
2022-09-17T05:10:30.130Z,1.47
2022-09-17T05:12:57.459Z,1.50
2022-09-17T05:15:25.401Z,1.80
2022-09-17T05:17:52.441Z,1.30
2022-09-17T05:20:19.787Z,1.40
2022-09-17T05:22:51.569Z,1.50
2022-09-17T05:25:24.474Z,1.57
2022-09-17T05:27:52.669Z,1.57
2022-09-17T05:30:19.877Z,1.13
2022-09-17T05:32:47.130Z,1.80
2022-09-17T05:35:14.469Z,1.63
2022-09-17T05:37:41.197Z,1.40
2022-09-17T05:40:09.000Z,1.60
2022-09-17T05:42:37.209Z,1.97
2022-09-17T05:45:05.349Z,1.60
2022-09-17T05:47:31.937Z,1.53
2022-09-17T05:49:58.590Z,1.57
2022-09-17T05:52:28.908Z,2.00
2022-09-17T05:54:56.501Z,1.97
2022-09-17T05:57:23.423Z,1.30
2022-09-17T05:59:50.165Z,1.43
2022-09-17T06:02:16.925Z,1.60
2022-09-17T06:04:43.483Z,1.50
2022-09-17T06:07:10.057Z,1.60
2022-09-17T06:09:40.946Z,1.57
2022-09-17T06:12:07.905Z,2.00
2022-09-17T06:14:34.548Z,2.63
2022-09-17T06:17:01.174Z,1.70
2022-09-17T06:19:28.362Z,1.40
2022-09-17T06:21:55.279Z,1.63
2022-09-17T06:24:21.960Z,1.70
2022-09-17T06:26:48.583Z,2.10
2022-09-17T06:29:15.537Z,1.90
2022-09-17T06:31:44.826Z,1.83
2022-09-17T06:34:12.297Z,1.77
2022-09-17T06:36:39.336Z,1.93
2022-09-17T06:39:06.411Z,1.63
2022-09-17T06:41:33.292Z,2.03
2022-09-17T06:44:02.037Z,2.00
2022-09-17T06:46:28.831Z,2.40
2022-09-17T06:48:55.861Z,1.50
2022-09-17T06:51:22.604Z,1.80
2022-09-17T06:53:49.374Z,1.87
2022-09-17T06:56:16.574Z,1.50
2022-09-17T06:58:44.342Z,2.73
2022-09-17T07:01:11.992Z,3.77
2022-09-17T07:03:39.058Z,3.17
2022-09-17T07:06:11.506Z,2.93
2022-09-17T07:08:39.402Z,2.53
2022-09-17T07:11:06.670Z,2.93
2022-09-17T07:13:34.011Z,2.20
2022-09-17T07:16:03.834Z,2.50
2022-09-17T07:18:30.762Z,2.43
2022-09-17T07:21:02.479Z,2.10
2022-09-17T07:23:32.029Z,5.03
2022-09-17T07:26:00.883Z,4.07
2022-09-17T07:28:28.810Z,4.33
2022-09-17T07:30:55.873Z,6.80
2022-09-17T07:33:25.010Z,4.80
2022-09-17T07:36:06.741Z,4.17
2022-09-17T07:38:35.110Z,4.73
2022-09-17T07:41:07.475Z,5.10
2022-09-17T07:43:35.620Z,6.53
2022-09-17T07:46:04.697Z,2.23
2022-09-17T07:48:31.911Z,1.80
2022-09-17T07:50:58.671Z,2.17
2022-09-17T07:53:25.942Z,1.80
2022-09-17T07:56:00.588Z,2.43
2022-09-17T07:58:33.478Z,2.07
2022-09-17T08:01:08.665Z,2.63
2022-09-17T08:03:36.173Z,2.03
2022-09-17T08:06:11.466Z,2.53
2022-09-17T08:08:39.442Z,3.23
2022-09-17T08:11:09.392Z,1.90
2022-09-17T08:13:37.225Z,1.70
2022-09-17T08:16:06.829Z,1.70
2022-09-17T08:18:34.294Z,2.00
2022-09-17T08:21:03.136Z,1.80
2022-09-17T08:23:31.437Z,2.23
2022-09-17T08:26:00.181Z,2.07
2022-09-17T08:28:29.608Z,3.00
2022-09-17T08:31:01.820Z,1.97
2022-09-17T08:33:34.976Z,1.90
2022-09-17T08:36:02.267Z,2.87
2022-09-17T08:38:37.664Z,1.93
2022-09-17T08:41:10.834Z,1.77
2022-09-17T08:43:52.675Z,1.80
2022-09-17T08:46:19.479Z,2.20
2022-09-17T08:48:56.305Z,2.67
2022-09-17T08:51:39.346Z,1.87
2022-09-17T08:54:26.254Z,1.77
2022-09-17T08:57:17.185Z,1.73
2022-09-17T09:00:11.092Z,2.00
2022-09-17T09:02:47.265Z,2.03
2022-09-17T09:05:21.100Z,2.20
2022-09-17T09:07:52.684Z,1.60
2022-09-17T09:10:45.383Z,1.80
2022-09-17T09:13:18.481Z,1.87
2022-09-17T09:15:49.138Z,2.67
2022-09-17T09:18:20.101Z,2.13
2022-09-17T09:20:55.443Z,1.73
2022-09-17T09:23:50.601Z,2.10
2022-09-17T09:26:19.970Z,2.17
2022-09-17T09:28:54.628Z,2.40
2022-09-17T09:31:40.424Z,3.10
2022-09-17T09:34:08.907Z,1.63
2022-09-17T09:36:38.860Z,1.60
2022-09-17T09:39:20.464Z,1.67
2022-09-17T09:41:55.489Z,2.20
2022-09-17T09:44:24.613Z,1.70
2022-09-17T09:47:05.472Z,1.90
2022-09-17T09:49:56.574Z,1.50
2022-09-17T09:52:41.857Z,3.00
2022-09-17T09:55:47.906Z,4.67
2022-09-17T09:58:36.026Z,9.33
2022-09-17T10:01:11.478Z,5.70
2022-09-17T10:03:42.090Z,3.60
2022-09-17T10:06:10.859Z,4.30
2022-09-17T10:08:40.316Z,1.97
2022-09-17T10:11:21.248Z,2.27
2022-09-17T10:13:47.990Z,15.90
2022-09-17T10:16:24.410Z,8.37
2022-09-17T10:19:08.023Z,8.87
2022-09-17T10:21:40.668Z,5.13
2022-09-17T10:24:26.949Z,2.40
2022-09-17T10:27:12.173Z,1.60
2022-09-17T10:29:45.898Z,3.00
2022-09-17T10:32:17.383Z,1.67
2022-09-17T10:34:59.794Z,1.20
2022-09-17T10:37:47.778Z,1.57
2022-09-17T10:40:20.549Z,2.23
2022-09-17T10:42:49.083Z,1.60
2022-09-17T10:45:25.707Z,1.90
2022-09-17T10:47:53.160Z,1.27
2022-09-17T10:50:23.921Z,1.70
2022-09-17T10:52:54.182Z,1.57
2022-09-17T10:55:58.295Z,2.27
2022-09-17T10:58:47.942Z,1.70
2022-09-17T11:01:21.543Z,1.87
2022-09-17T11:04:07.103Z,1.93
2022-09-17T11:06:55.387Z,2.00
2022-09-17T11:09:34.873Z,1.83
2022-09-17T11:12:12.757Z,1.83
2022-09-17T11:14:39.460Z,1.43
2022-09-17T11:17:18.257Z,1.90
2022-09-17T11:19:50.522Z,1.93
2022-09-17T11:22:27.607Z,1.40
2022-09-17T11:25:19.597Z,1.43
2022-09-17T11:28:05.840Z,3.03
2022-09-17T11:30:56.577Z,2.13
2022-09-17T11:33:38.157Z,1.30
2022-09-17T11:36:25.206Z,1.37
2022-09-17T11:38:54.097Z,1.53
2022-09-17T11:41:25.164Z,2.03
2022-09-17T11:44:05.504Z,2.77
2022-09-17T11:46:45.642Z,7.23
2022-09-17T11:49:32.018Z,6.57
2022-09-17T11:52:05.079Z,11.97
2022-09-17T11:54:41.072Z,4.93
2022-09-17T11:57:18.552Z,9.33
2022-09-17T11:59:51.068Z,1.80
2022-09-17T12:02:33.961Z,1.80
2022-09-17T12:05:09.883Z,2.70
2022-09-17T12:07:53.021Z,3.30
2022-09-17T12:10:36.317Z,3.00
2022-09-17T12:13:14.316Z,5.63
2022-09-17T12:15:52.322Z,5.93
2022-09-17T12:18:33.203Z,6.13
2022-09-17T12:21:04.477Z,6.63
2022-09-17T12:23:35.834Z,6.50
2022-09-17T12:26:29.184Z,4.87
2022-09-17T12:29:23.528Z,5.97
2022-09-17T12:31:58.633Z,3.77
2022-09-17T12:34:33.919Z,8.87
2022-09-17T12:37:12.015Z,5.60
2022-09-17T12:39:54.671Z,2.07
2022-09-17T12:43:12.748Z,1.90
2022-09-17T12:46:24.269Z,1.90
2022-09-17T12:49:23.301Z,1.80
2022-09-17T12:51:53.023Z,1.33
2022-09-17T12:54:41.798Z,1.97
2022-09-17T12:57:29.925Z,4.43
2022-09-17T13:00:07.712Z,3.10
2022-09-17T13:02:51.494Z,3.90
2022-09-17T13:05:46.369Z,2.00
2022-09-17T13:08:31.740Z,2.20
2022-09-17T13:11:39.243Z,2.07
2022-09-17T13:14:28.809Z,1.77
2022-09-17T13:17:02.235Z,2.63
2022-09-17T13:19:33.765Z,2.13
2022-09-17T13:22:06.944Z,3.43
2022-09-17T13:24:37.484Z,14.33
2022-09-17T13:27:05.788Z,5.33
2022-09-17T13:29:47.382Z,5.20
2022-09-17T13:32:32.097Z,13.20
2022-09-17T13:35:24.733Z,9.00
2022-09-17T13:37:59.523Z,6.10
2022-09-17T13:40:35.216Z,5.53
2022-09-17T13:43:06.099Z,4.63
2022-09-17T13:45:34.822Z,2.50
2022-09-17T13:48:11.418Z,3.10
2022-09-17T13:50:43.493Z,1.70
2022-09-17T13:53:16.266Z,1.17
2022-09-17T13:56:01.028Z,1.97
2022-09-17T13:58:31.763Z,3.90
2022-09-17T14:01:01.183Z,1.83
2022-09-17T14:03:31.206Z,2.33
2022-09-17T14:06:24.382Z,1.37
2022-09-17T14:08:54.535Z,3.80
2022-09-17T14:11:26.871Z,3.33
2022-09-17T14:14:05.324Z,1.87
2022-09-17T14:16:40.600Z,2.43
2022-09-17T14:19:16.346Z,1.90
2022-09-17T14:21:46.292Z,1.50
2022-09-17T14:24:23.616Z,1.37
2022-09-17T14:27:07.612Z,1.70
2022-09-17T14:29:40.952Z,2.00
2022-09-17T14:32:15.768Z,2.03
2022-09-17T14:34:42.458Z,2.93
2022-09-17T14:37:17.542Z,2.80
2022-09-17T14:39:45.849Z,2.90
2022-09-17T14:42:21.017Z,1.43
2022-09-17T14:45:00.834Z,8.93
2022-09-17T14:47:28.329Z,6.93
2022-09-17T14:49:55.422Z,12.33
2022-09-17T14:52:31.459Z,8.90
2022-09-17T14:55:29.570Z,7.40
2022-09-17T14:57:58.646Z,2.90
2022-09-17T15:00:31.403Z,3.63
2022-09-17T15:03:01.711Z,2.00
2022-09-17T15:05:31.706Z,2.00
2022-09-17T15:08:14.276Z,1.67
2022-09-17T15:11:03.615Z,1.67
2022-09-17T15:13:35.170Z,1.50
2022-09-17T15:16:13.624Z,2.60
2022-09-17T15:18:43.795Z,3.83
2022-09-17T15:21:24.305Z,4.30
2022-09-17T15:23:57.187Z,3.17
2022-09-17T15:26:31.981Z,1.57
2022-09-17T15:28:59.692Z,1.30
2022-09-17T15:31:28.944Z,6.10
2022-09-17T15:33:59.544Z,3.87
2022-09-17T15:36:27.470Z,3.93
2022-09-17T15:38:54.290Z,1.60
2022-09-17T15:41:30.105Z,2.47
2022-09-17T15:44:30.220Z,6.77
2022-09-17T15:47:38.999Z,6.30
2022-09-17T15:50:34.928Z,7.03
2022-09-17T15:53:11.062Z,4.73
2022-09-17T15:55:45.820Z,6.57
2022-09-17T15:58:32.872Z,4.10
2022-09-17T16:01:15.063Z,2.33
2022-09-17T16:03:42.075Z,3.13
2022-09-17T16:06:18.658Z,3.83
2022-09-17T16:08:47.702Z,2.97
2022-09-17T16:11:15.176Z,2.23
2022-09-17T16:13:42.511Z,3.60
2022-09-17T16:16:16.132Z,1.87
2022-09-17T16:18:43.041Z,4.30
2022-09-17T16:21:14.189Z,2.40
2022-09-17T16:23:41.199Z,3.17
2022-09-17T16:26:13.707Z,1.83
2022-09-17T16:28:40.963Z,3.10
2022-09-17T16:31:13.003Z,4.80
2022-09-17T16:33:49.556Z,2.70
2022-09-17T16:36:19.267Z,1.80
2022-09-17T16:38:50.815Z,2.20
2022-09-17T16:41:17.591Z,2.50
2022-09-17T16:43:45.676Z,1.77
2022-09-17T16:46:12.701Z,1.90
2022-09-17T16:48:44.436Z,1.40
2022-09-17T16:51:16.176Z,1.20
2022-09-17T16:53:43.697Z,1.30
2022-09-17T16:56:13.558Z,1.90
2022-09-17T16:58:41.648Z,1.50
2022-09-17T17:01:16.031Z,1.60
2022-09-17T17:03:49.135Z,1.70
2022-09-17T17:06:18.354Z,1.93
2022-09-17T17:08:45.821Z,1.97
2022-09-17T17:11:13.293Z,3.10
2022-09-17T17:13:44.934Z,2.53
2022-09-17T17:16:15.569Z,2.77
2022-09-17T17:18:44.428Z,2.90
2022-09-17T17:21:13.594Z,2.77
2022-09-17T17:23:43.443Z,1.90
2022-09-17T17:26:10.474Z,3.30
2022-09-17T17:28:37.781Z,6.03
2022-09-17T17:31:05.963Z,5.53
2022-09-17T17:33:33.204Z,3.87
2022-09-17T17:36:06.816Z,3.80
2022-09-17T17:38:36.257Z,7.07
2022-09-17T17:41:04.711Z,7.47
2022-09-17T17:43:31.439Z,7.17
2022-09-17T17:45:58.169Z,13.30
2022-09-17T17:48:25.034Z,12.57
2022-09-17T17:50:56.425Z,7.50
2022-09-17T17:53:23.610Z,7.17
2022-09-17T17:56:00.766Z,7.67
2022-09-17T17:58:28.177Z,6.00
2022-09-17T18:00:56.249Z,3.40
2022-09-17T18:03:25.118Z,4.80
2022-09-17T18:05:53.639Z,4.67
2022-09-17T18:08:20.797Z,4.17
2022-09-17T18:10:55.051Z,3.23
2022-09-17T18:13:22.994Z,3.80
2022-09-17T18:15:58.539Z,4.60
2022-09-17T18:18:33.885Z,4.40
2022-09-17T18:21:03.017Z,2.60
2022-09-17T18:23:30.129Z,1.93
2022-09-17T18:25:59.538Z,2.30
2022-09-17T18:28:27.746Z,3.60
2022-09-17T18:30:54.873Z,3.73
2022-09-17T18:33:25.114Z,4.70
2022-09-17T18:35:57.250Z,2.80
2022-09-17T18:38:24.375Z,2.97
2022-09-17T18:40:51.410Z,2.40
2022-09-17T18:43:18.576Z,1.60
2022-09-17T18:45:59.032Z,2.90
2022-09-17T18:48:27.198Z,2.70
2022-09-17T18:51:06.562Z,2.17
2022-09-17T18:53:36.254Z,2.37
2022-09-17T18:56:17.258Z,1.60
2022-09-17T18:58:48.935Z,3.00
2022-09-17T19:01:16.704Z,1.60
2022-09-17T19:03:43.911Z,1.70
2022-09-17T19:06:13.049Z,3.20
2022-09-17T19:08:39.889Z,2.37
2022-09-17T19:11:07.072Z,2.13
2022-09-17T19:13:45.462Z,1.70
2022-09-17T19:16:14.811Z,1.70
2022-09-17T19:18:42.002Z,2.87
2022-09-17T19:21:14.851Z,5.07
2022-09-17T19:23:43.506Z,5.40
2022-09-17T19:26:14.228Z,7.37
2022-09-17T19:28:41.437Z,8.93
2022-09-17T19:31:13.673Z,8.53
2022-09-17T19:33:40.765Z,9.43
2022-09-17T19:36:16.773Z,6.40
2022-09-17T19:38:43.934Z,3.90
2022-09-17T19:41:19.357Z,3.27
2022-09-17T19:43:46.760Z,2.10
2022-09-17T19:46:22.005Z,2.40
2022-09-17T19:48:53.970Z,2.97
2022-09-17T19:51:22.873Z,3.43
2022-09-17T19:53:50.889Z,3.87
2022-09-17T19:56:20.554Z,3.73
2022-09-17T19:58:48.776Z,3.93
2022-09-17T20:01:15.972Z,3.73
2022-09-17T20:03:44.316Z,3.53
2022-09-17T20:06:14.016Z,5.90
2022-09-17T20:08:46.969Z,4.67
2022-09-17T20:11:14.938Z,3.70
2022-09-17T20:13:42.139Z,6.57
2022-09-17T20:16:18.822Z,5.00
2022-09-17T20:18:46.474Z,3.20
2022-09-17T20:21:19.131Z,2.67
2022-09-17T20:23:45.916Z,2.70
2022-09-17T20:26:13.634Z,3.07
2022-09-17T20:28:41.008Z,3.63
2022-09-17T20:31:12.366Z,3.87
2022-09-17T20:33:39.695Z,4.70
2022-09-17T20:36:18.314Z,5.10
2022-09-17T20:41:34.823Z,4.50
2022-09-17T20:44:02.194Z,4.93
2022-09-17T20:46:29.861Z,7.17
2022-09-17T20:48:58.249Z,6.03
2022-09-17T20:51:27.857Z,4.23
2022-09-17T20:53:54.987Z,4.03
2022-09-17T20:56:24.036Z,3.43
2022-09-17T20:59:07.719Z,2.23
2022-09-17T21:01:37.535Z,3.30
2022-09-17T21:04:07.075Z,7.00
2022-09-17T21:06:42.081Z,5.67
2022-09-17T21:09:12.019Z,4.10
2022-09-17T21:11:40.145Z,2.70
2022-09-17T21:14:06.891Z,2.50
2022-09-17T21:16:34.274Z,3.97
2022-09-17T21:19:03.642Z,4.03
2022-09-17T21:21:34.372Z,4.30
2022-09-17T21:24:03.078Z,9.30
2022-09-17T21:26:30.809Z,5.40
2022-09-17T21:28:57.949Z,3.00
2022-09-17T21:31:32.592Z,3.03
2022-09-17T21:34:02.415Z,2.90
2022-09-17T21:36:32.469Z,4.57
2022-09-17T21:39:02.168Z,4.50
2022-09-17T21:41:30.007Z,4.07
2022-09-17T21:43:56.889Z,3.63
2022-09-17T21:46:26.087Z,3.03
2022-09-17T21:48:56.140Z,4.27
2022-09-17T21:51:30.889Z,3.93
2022-09-17T21:54:00.523Z,3.93
2022-09-17T21:56:28.532Z,2.80
2022-09-17T21:59:05.202Z,3.10
2022-09-17T22:01:40.174Z,3.10
2022-09-17T22:04:13.193Z,2.97
2022-09-17T22:06:40.709Z,2.47
2022-09-17T22:09:12.187Z,3.80
2022-09-17T22:11:39.073Z,3.53
2022-09-17T22:14:10.872Z,2.97
2022-09-17T22:16:40.918Z,2.33
2022-09-17T22:19:11.561Z,2.27
2022-09-17T22:21:41.238Z,2.80
2022-09-17T22:24:09.269Z,3.23
2022-09-17T22:26:38.651Z,3.20
2022-09-17T22:29:09.427Z,3.73
2022-09-17T22:31:36.542Z,4.40
2022-09-17T22:34:07.931Z,5.47
2022-09-17T22:36:34.660Z,7.80
2022-09-17T22:39:01.317Z,6.00
2022-09-17T22:41:30.465Z,3.70
2022-09-17T22:44:00.225Z,3.40
2022-09-17T22:46:32.492Z,3.50
2022-09-17T22:49:00.203Z,3.87
2022-09-17T22:51:28.667Z,4.13
2022-09-17T22:53:56.541Z,2.77
2022-09-17T22:56:23.291Z,2.60
2022-09-17T22:58:50.437Z,1.80
2022-09-17T23:01:18.441Z,1.57
2022-09-17T23:03:47.206Z,1.90
2022-09-17T23:06:16.187Z,1.90
2022-09-17T23:08:43.105Z,2.00
2022-09-17T23:11:17.137Z,1.40
2022-09-17T23:13:43.922Z,2.40
2022-09-17T23:16:11.008Z,2.57
2022-09-17T23:18:38.287Z,2.13
2022-09-17T23:21:17.104Z,1.87
2022-09-17T23:23:45.888Z,1.77
2022-09-17T23:26:15.173Z,1.80
2022-09-17T23:28:42.126Z,2.00
2022-09-17T23:31:14.179Z,2.23
2022-09-17T23:33:41.767Z,1.97
2022-09-17T23:36:14.345Z,1.90
2022-09-17T23:38:42.899Z,1.70
2022-09-17T23:41:18.344Z,3.03
2022-09-17T23:43:47.665Z,3.00
2022-09-17T23:46:14.839Z,3.40
2022-09-17T23:48:42.173Z,2.07
2022-09-17T23:51:09.915Z,2.00
2022-09-17T23:53:37.659Z,1.80
2022-09-17T23:56:10.164Z,3.37
2022-09-17T23:58:36.769Z,3.23
